Time;durP1;ratioP1;P1;durP2;ratioP2;P2;SDS_P1;SDS_P2;PMS_P1;PMS_P2;Temp;Humidity;BMP_temperature;BMP_pressure;BME280_temperature;BME280_humidity;BME280_pressure;Samples;Min_cycle;Max_cycle;Signal;HPM_P1;HPM_P2
2022/07/29 00:01:24;;;;;;;2.97;1.42;;;15.30;99.90;;;;;;5018322;28;20452;-80
2022/07/29 00:03:58;;;;;;;3.85;1.35;;;15.20;99.90;;;;;;5001283;28;20075;-79
2022/07/29 00:06:29;;;;;;;2.50;1.20;;;14.60;99.90;;;;;;5004873;28;20041;-81
2022/07/29 00:08:57;;;;;;;2.70;1.08;;;15.10;99.90;;;;;;5004564;28;20139;-81
2022/07/29 00:12:01;;;;;;;3.85;1.67;;;15.30;99.90;;;;;;5007568;28;20399;-79
2022/07/29 00:14:55;;;;;;;2.25;1.20;;;15.30;99.90;;;;;;5021857;28;20244;-82
2022/07/29 00:17:28;;;;;;;3.63;1.30;;;15.30;99.90;;;;;;5000028;28;20069;-81
2022/07/29 00:20:10;;;;;;;3.97;1.30;;;15.30;99.90;;;;;;5004810;28;20057;-82
2022/07/29 00:23:10;;;;;;;;;;;;;;;;;;;;;
2022/07/29 00:25:48;;;;;;;2.63;1.30;;;15.30;99.90;;;;;;5040888;28;20041;-81
2022/07/29 00:28:26;;;;;;;3.60;1.15;;;15.30;99.90;;;;;;5002072;28;20076;-81
2022/07/29 00:31:00;;;;;;;3.85;1.10;;;15.30;99.90;;;;;;5007422;28;20042;-81
2022/07/29 00:33:52;;;;;;;3.15;1.38;;;15.40;99.90;;;;;;5024980;28;20530;-82
2022/07/29 00:36:31;;;;;;;7.20;1.50;;;14.90;99.90;;;;;;5026493;28;20551;-82
2022/07/29 00:39:10;;;;;;;3.97;1.20;;;15.60;99.90;;;;;;5006950;28;20320;-81
2022/07/29 00:42:12;;;;;;;4.38;1.33;;;15.40;99.90;;;;;;4968789;28;20052;-82
2022/07/29 00:44:53;;;;;;;4.60;1.33;;;15.40;99.90;;;;;;4970388;28;20057;-81
2022/07/29 00:47:52;;;;;;;5.72;1.10;;;14.80;99.90;;;;;;4966994;28;20678;-83
2022/07/29 00:50:28;;;;;;;3.80;1.13;;;15.40;99.90;;;;;;4965394;28;20104;-81
2022/07/29 00:53:05;;;;;;;3.50;1.30;;;15.40;99.90;;;;;;4985034;28;20143;-82
2022/07/29 00:55:31;;;;;;;3.92;1.20;;;15.30;99.90;;;;;;5008210;28;20045;-81
2022/07/29 00:58:00;;;;;;;3.78;1.40;;;14.50;99.90;;;;;;5023008;28;20051;-82
2022/07/29 01:01:10;;;;;;;2.97;1.33;;;15.40;99.90;;;;;;4989659;28;20402;-82
2022/07/29 01:04:15;;;;;;;;;;;;;;;;;;;;;
2022/07/29 01:07:07;;;;;;;6.28;2.83;;;15.40;99.90;;;;;;5020914;28;20041;-83
2022/07/29 01:09:51;;;;;;;3.42;1.20;;;15.40;99.90;;;;;;5007805;28;20131;-82
2022/07/29 01:12:37;;;;;;;4.30;1.30;;;15.30;99.90;;;;;;5020215;28;20477;-81
2022/07/29 01:18:04;;;;;;;3.67;1.88;;;15.30;99.90;;;;;;5018242;28;20045;-81
2022/07/29 01:21:10;;;;;;;3.47;1.70;;;15.40;99.90;;;;;;5012138;28;20105;-81
2022/07/29 01:23:52;;;;;;;5.07;1.50;;;15.30;99.90;;;;;;5018479;28;20128;-81
2022/07/29 01:26:48;;;;;;;3.38;1.48;;;14.70;99.90;;;;;;5007387;28;20037;-82
2022/07/29 01:29:50;;;;;;;3.42;1.30;;;15.40;99.90;;;;;;5011143;28;20075;-81
2022/07/29 01:32:50;;;;;;;2.85;1.42;;;15.30;99.90;;;;;;5025524;28;20041;-80
2022/07/29 01:36:03;;;;;;;2.65;1.13;;;15.30;99.90;;;;;;5006827;28;20044;-81
2022/07/29 01:42:20;;;;;;;;;;;;;;;;;;;;;
2022/07/29 01:45:31;;;;;;;2.63;1.20;;;14.40;99.90;;;;;;5018519;28;20056;-82
2022/07/29 01:48:29;;;;;;;5.20;1.40;;;15.40;99.90;;;;;;5000715;28;20116;-81
2022/07/29 01:52:35;;;;;;;2.95;1.30;;;15.40;99.90;;;;;;5008324;28;20041;-83
2022/07/29 01:55:41;;;;;;;6.72;2.08;;;15.20;99.90;;;;;;4946343;28;20408;-81
2022/07/29 01:58:28;;;;;;;2.97;1.33;;;15.40;99.90;;;;;;4961255;28;20072;-82
2022/07/29 02:01:29;;;;;;;6.47;1.73;;;15.40;99.90;;;;;;5005379;28;20689;-82
2022/07/29 02:04:26;;;;;;;;;;;;;;;;;;;;;
2022/07/29 02:07:15;;;;;;;2.40;1.40;;;15.50;99.90;;;;;;5020397;28;20048;-82
2022/07/29 02:10:27;;;;;;;3.88;1.65;;;15.40;99.90;;;;;;5016439;28;20041;-82
2022/07/29 02:13:23;;;;;;;3.65;1.30;;;15.30;99.90;;;;;;5010121;28;20050;-82
2022/07/29 02:16:07;;;;;;;3.85;1.30;;;15.40;99.90;;;;;;5010835;28;20084;-82
2022/07/29 02:18:43;;;;;;;8.38;1.85;;;15.40;99.90;;;;;;5027012;22;20419;-55
2022/07/29 02:21:11;;;;;;;4.30;1.33;;;15.50;99.90;;;;;;5048542;28;20070;-54
2022/07/29 02:23:39;;;;;;;5.32;1.80;;;15.50;99.90;;;;;;5044077;28;20102;-54
2022/07/29 02:26:06;;;;;;;5.90;1.58;;;15.50;99.90;;;;;;5041912;28;20044;-52
2022/07/29 02:28:33;;;;;;;2.50;1.58;;;15.50;99.90;;;;;;5048590;28;20111;-54
2022/07/29 02:31:01;;;;;;;4.07;1.63;;;15.50;99.90;;;;;;5045367;28;20106;-55
2022/07/29 02:33:30;;;;;;;3.83;1.60;;;15.50;99.90;;;;;;5046236;28;20395;-55
2022/07/29 02:35:58;;;;;;;5.22;1.65;;;15.50;99.90;;;;;;5050242;28;20589;-52
2022/07/29 02:41:13;;;;;;;2.08;1.42;;;15.50;99.90;;;;;;5048751;28;20513;-52
2022/07/29 02:43:42;;;;;;;2.92;1.35;;;15.50;99.90;;;;;;5045905;28;20044;-54
2022/07/29 02:46:14;;;;;;;3.97;1.88;;;15.50;99.90;;;;;;5048861;28;20047;-55
2022/07/29 02:48:51;;;;;;;2.50;1.40;;;15.50;99.90;;;;;;5049790;28;20216;-54
2022/07/29 02:51:24;;;;;;;5.75;1.60;;;15.50;99.90;;;;;;5056310;28;20043;-55
2022/07/29 02:53:54;;;;;;;8.57;1.75;;;15.50;99.90;;;;;;5048064;28;20040;-54
2022/07/29 02:56:27;;;;;;;3.33;1.60;;;15.50;99.90;;;;;;5052149;28;20562;-55
2022/07/29 02:59:00;;;;;;;5.72;1.80;;;15.50;99.90;;;;;;5048961;28;20533;-55
2022/07/29 03:01:31;;;;;;;4.72;2.13;;;15.50;99.90;;;;;;5055037;28;20040;-54
2022/07/29 03:04:02;;;;;;;4.07;2.00;;;15.50;99.90;;;;;;5052095;28;20039;-54
2022/07/29 03:06:30;;;;;;;4.63;2.00;;;15.50;99.90;;;;;;5040185;28;20053;-52
2022/07/29 03:08:57;;;;;;;5.93;1.92;;;15.50;99.90;;;;;;5051180;28;20438;-53
2022/07/29 03:11:23;;;;;;;3.63;1.98;;;15.50;99.90;;;;;;5058626;28;20160;-55
2022/07/29 03:13:49;;;;;;;5.68;2.03;;;15.50;99.90;;;;;;5049856;28;20254;-54
2022/07/29 03:16:15;;;;;;;7.72;2.28;;;15.50;99.90;;;;;;5051333;28;20032;-55
2022/07/29 03:18:42;;;;;;;5.38;2.00;;;15.50;99.90;;;;;;5047983;28;20044;-54
2022/07/29 03:21:08;;;;;;;3.78;1.52;;;15.50;99.90;;;;;;5048716;28;20049;-53
2022/07/29 03:23:34;;;;;;;4.43;2.00;;;15.50;99.90;;;;;;5054300;28;20395;-52
2022/07/29 03:25:59;;;;;;;4.35;1.90;;;15.50;99.90;;;;;;5046627;28;20033;-55
2022/07/29 03:28:27;;;;;;;6.10;1.75;;;15.50;99.90;;;;;;5043117;28;20056;-51
2022/07/29 03:30:53;;;;;;;5.05;2.25;;;15.50;99.90;;;;;;5045675;28;20044;-54
2022/07/29 03:33:19;;;;;;;3.25;1.50;;;15.50;99.90;;;;;;5050018;28;20051;-53
2022/07/29 03:35:44;;;;;;;5.43;2.70;;;15.50;99.90;;;;;;5030052;28;20045;-55
2022/07/29 03:38:10;;;;;;;5.25;1.70;;;15.50;99.90;;;;;;5044778;28;20654;-54
2022/07/29 03:40:44;;;;;;;3.55;1.90;;;15.50;99.90;;;;;;5048673;28;20045;-53
2022/07/29 03:43:13;;;;;;;4.85;1.70;;;15.50;99.90;;;;;;5044151;28;20034;-54
2022/07/29 03:45:41;;;;;;;4.38;1.38;;;15.50;99.90;;;;;;5043802;28;20048;-55
2022/07/29 03:48:09;;;;;;;4.43;1.77;;;15.50;99.90;;;;;;5046683;28;20082;-54
2022/07/29 03:50:36;;;;;;;4.07;1.58;;;15.50;99.90;;;;;;5041793;28;20060;-54
2022/07/29 03:53:02;;;;;;;4.10;1.55;;;15.50;99.90;;;;;;5021764;28;20044;-51
2022/07/29 03:55:32;;;;;;;6.53;1.48;;;15.50;99.90;;;;;;5045830;28;20064;-51
2022/07/29 03:57:59;;;;;;;3.55;1.48;;;15.50;99.90;;;;;;5052141;28;20072;-52
2022/07/29 04:00:27;;;;;;;2.45;1.63;;;15.50;99.90;;;;;;5049047;28;20029;-54
2022/07/29 04:02:53;;;;;;;3.47;1.55;;;15.50;99.90;;;;;;5039249;28;20883;-55
2022/07/29 04:05:19;;;;;;;3.00;1.30;;;15.50;99.90;;;;;;5042231;28;20315;-53
2022/07/29 04:07:46;;;;;;;4.07;1.55;;;15.50;99.90;;;;;;5044694;28;20401;-55
2022/07/29 04:10:12;;;;;;;4.93;1.92;;;15.50;99.90;;;;;;5043090;28;20067;-55
2022/07/29 04:12:38;;;;;;;7.18;1.60;;;15.50;99.90;;;;;;5047304;28;20056;-56
2022/07/29 04:15:05;;;;;;;5.32;1.50;;;15.50;99.90;;;;;;5050563;28;20033;-55
2022/07/29 04:17:30;;;;;;;3.50;1.27;;;15.50;99.90;;;;;;5048741;28;20033;-53
2022/07/29 04:19:56;;;;;;;2.50;1.45;;;15.50;99.90;;;;;;5049173;28;20045;-55
2022/07/29 04:22:22;;;;;;;5.30;1.50;;;15.50;99.90;;;;;;5059191;28;20045;-54
2022/07/29 04:24:47;;;;;;;6.57;1.70;;;15.60;99.90;;;;;;5025861;28;20078;-56
2022/07/29 04:27:13;;;;;;;9.95;2.00;;;15.50;99.90;;;;;;5051425;28;20094;-56
2022/07/29 04:29:39;;;;;;;3.22;1.10;;;15.50;99.90;;;;;;5043845;28;20040;-53
2022/07/29 04:32:05;;;;;;;3.30;1.30;;;15.50;99.90;;;;;;5041315;28;20056;-54
2022/07/29 04:34:31;;;;;;;4.00;1.30;;;15.50;99.90;;;;;;5047797;28;20064;-54
2022/07/29 04:36:56;;;;;;;4.70;1.60;;;15.50;99.90;;;;;;5048209;28;20475;-55
2022/07/29 04:39:22;;;;;;;5.05;1.35;;;15.50;99.90;;;;;;5056192;28;20037;-56
2022/07/29 04:41:49;;;;;;;3.67;1.55;;;15.50;99.90;;;;;;5040258;28;20044;-56
2022/07/29 04:44:14;;;;;;;3.58;1.20;;;15.50;99.90;;;;;;5051160;28;20052;-54
2022/07/29 04:46:40;;;;;;;3.00;1.55;;;15.50;99.90;;;;;;5048219;28;20101;-56
2022/07/29 04:49:06;;;;;;;6.88;1.65;;;15.50;99.90;;;;;;5055017;28;20040;-54
2022/07/29 04:51:31;;;;;;;3.25;1.48;;;15.50;99.90;;;;;;5047467;22;20427;-54
2022/07/29 04:53:57;;;;;;;4.60;1.70;;;15.60;99.90;;;;;;5017398;28;20045;-54
2022/07/29 04:56:23;;;;;;;4.68;1.48;;;15.60;99.90;;;;;;5015835;28;20056;-52
2022/07/29 04:58:49;;;;;;;7.95;1.50;;;15.60;99.90;;;;;;5029716;28;20214;-56
2022/07/29 05:01:14;;;;;;;6.53;1.90;;;15.60;99.90;;;;;;5018162;28;20069;-56
2022/07/29 05:03:40;;;;;;;4.93;1.63;;;15.60;99.90;;;;;;5001295;28;20464;-57
2022/07/29 05:06:06;;;;;;;5.95;1.38;;;15.60;99.90;;;;;;5020778;28;20036;-56
2022/07/29 05:08:32;;;;;;;5.97;1.40;;;15.60;99.90;;;;;;5025133;28;20195;-56
2022/07/29 05:10:57;;;;;;;3.72;1.40;;;15.60;99.90;;;;;;5007537;28;20044;-55
2022/07/29 05:13:23;;;;;;;6.40;1.67;;;15.70;99.90;;;;;;5018388;28;20482;-55
2022/07/29 05:15:49;;;;;;;4.78;1.67;;;15.60;99.90;;;;;;5017774;28;20595;-56
2022/07/29 05:18:15;;;;;;;4.25;1.48;;;15.70;99.90;;;;;;5015942;28;20511;-56
2022/07/29 05:20:41;;;;;;;4.40;1.55;;;15.60;99.90;;;;;;5017575;28;20064;-56
2022/07/29 05:23:07;;;;;;;8.30;2.03;;;15.60;99.90;;;;;;5025713;28;20399;-54
2022/07/29 05:25:33;;;;;;;3.72;1.40;;;15.70;99.90;;;;;;5033316;28;20036;-56
2022/07/29 05:27:58;;;;;;;4.10;1.60;;;15.70;99.90;;;;;;5028526;28;20041;-57
2022/07/29 05:30:25;;;;;;;6.57;1.38;;;15.70;99.90;;;;;;5023743;28;20052;-56
2022/07/29 05:32:51;;;;;;;3.72;1.40;;;15.70;99.90;;;;;;5023458;28;20033;-56
2022/07/29 05:35:16;;;;;;;4.90;1.40;;;15.70;99.90;;;;;;5014161;28;20041;-56
2022/07/29 05:37:42;;;;;;;5.65;1.50;;;15.80;99.90;;;;;;5032518;28;20095;-56
2022/07/29 05:40:08;;;;;;;8.13;2.55;;;15.80;99.90;;;;;;5024842;28;20064;-56
2022/07/29 05:42:34;;;;;;;4.10;1.60;;;15.80;99.90;;;;;;5013161;28;20037;-56
2022/07/29 05:45:01;;;;;;;4.25;1.50;;;15.80;99.90;;;;;;5001691;28;20080;-57
2022/07/29 05:47:27;;;;;;;5.30;1.80;;;15.80;99.90;;;;;;5032314;28;20040;-57
2022/07/29 05:49:53;;;;;;;5.38;1.60;;;15.90;99.90;;;;;;5016048;28;20107;-55
2022/07/29 05:52:19;;;;;;;3.75;1.42;;;15.90;99.90;;;;;;5025949;28;20561;-55
2022/07/29 05:54:45;;;;;;;6.93;1.77;;;16.00;99.90;;;;;;5028570;28;20037;-54
2022/07/29 05:57:22;;;;;;;4.60;1.45;;;16.10;99.90;;;;;;5017435;28;20527;-54
2022/07/29 05:59:49;;;;;;;6.93;1.50;;;16.20;99.90;;;;;;5016077;28;20511;-54
2022/07/29 06:02:16;;;;;;;5.70;1.67;;;16.20;99.90;;;;;;5038337;28;20049;-55
2022/07/29 06:04:41;;;;;;;3.70;1.23;;;16.20;99.90;;;;;;5033469;28;20040;-54
2022/07/29 06:07:07;;;;;;;4.43;1.60;;;16.30;99.90;;;;;;5030338;28;20091;-56
2022/07/29 06:09:34;;;;;;;4.47;1.25;;;16.30;99.90;;;;;;5028506;28;20068;-56
2022/07/29 06:12:00;;;;;;;7.10;2.17;;;16.30;99.90;;;;;;5018303;28;20041;-55
2022/07/29 06:14:26;;;;;;;6.53;1.98;;;16.30;99.90;;;;;;5027710;28;20677;-55
2022/07/29 06:16:52;;;;;;;4.60;1.75;;;16.30;99.90;;;;;;5024634;28;20045;-55
2022/07/29 06:19:18;;;;;;;4.20;1.52;;;16.40;99.90;;;;;;5028709;28;20037;-55
2022/07/29 06:21:45;;;;;;;4.75;1.67;;;16.40;99.90;;;;;;5025318;28;20049;-53
2022/07/29 06:24:12;;;;;;;5.55;2.35;;;16.50;99.90;;;;;;5037302;28;20511;-52
2022/07/29 06:26:39;;;;;;;8.02;2.50;;;16.60;99.90;;;;;;5015733;28;20405;-53
2022/07/29 06:29:05;;;;;;;5.10;1.38;;;16.70;99.90;;;;;;5031202;28;20488;-56
2022/07/29 06:31:30;;;;;;;5.85;1.70;;;16.80;99.90;;;;;;5006281;28;20135;-56
2022/07/29 06:33:56;;;;;;;3.58;2.47;;;16.90;99.90;;;;;;5026623;28;20048;-55
2022/07/29 06:36:22;;;;;;;5.22;1.75;;;16.90;99.90;;;;;;5030243;28;20391;-53
2022/07/29 06:38:47;;;;;;;4.38;1.55;;;17.00;99.90;;;;;;5016061;28;20424;-53
2022/07/29 06:41:15;;;;;;;8.00;1.90;;;17.10;99.90;;;;;;5028791;28;20040;-54
2022/07/29 06:43:43;;;;;;;4.93;1.70;;;17.20;99.90;;;;;;5031001;28;20103;-55
2022/07/29 06:46:11;;;;;;;4.47;1.60;;;17.30;99.90;;;;;;5032225;28;20076;-56
2022/07/29 06:48:37;;;;;;;5.47;1.75;;;17.40;99.90;;;;;;5016689;28;20053;-56
2022/07/29 06:51:04;;;;;;;6.00;1.95;;;17.50;99.90;;;;;;5030220;28;20470;-56
2022/07/29 06:53:30;;;;;;;6.95;2.08;;;17.70;99.90;;;;;;5036816;28;20029;-55
2022/07/29 06:55:58;;;;;;;3.55;2.03;;;17.70;99.90;;;;;;5033019;28;20045;-55
2022/07/29 06:58:24;;;;;;;5.53;2.08;;;17.80;99.90;;;;;;5040625;28;20142;-56
2022/07/29 07:00:50;;;;;;;5.30;2.25;;;17.80;99.90;;;;;;4997310;28;20033;-55
2022/07/29 07:03:17;;;;;;;6.80;2.42;;;17.80;99.90;;;;;;5023676;28;20040;-55
2022/07/29 07:05:42;;;;;;;7.32;1.85;;;17.80;99.90;;;;;;5026805;28;20049;-55
2022/07/29 07:08:09;;;;;;;8.93;2.08;;;17.80;99.90;;;;;;5020563;28;20096;-55
2022/07/29 07:10:35;;;;;;;4.95;1.80;;;17.80;99.90;;;;;;5026532;28;20471;-56
2022/07/29 07:13:01;;;;;;;6.82;2.00;;;17.80;99.90;;;;;;5019092;28;21197;-56
2022/07/29 07:15:27;;;;;;;5.20;1.70;;;17.80;99.90;;;;;;5024012;28;20688;-56
2022/07/29 07:17:53;;;;;;;6.00;2.20;;;17.80;99.90;;;;;;5024319;28;20515;-57
2022/07/29 07:20:19;;;;;;;9.98;2.65;;;17.80;99.90;;;;;;5029259;28;20037;-56
2022/07/29 07:22:45;;;;;;;9.02;2.15;;;17.80;99.90;;;;;;5032725;28;20045;-56
2022/07/29 07:25:13;;;;;;;4.95;2.38;;;17.90;99.90;;;;;;5020243;28;20044;-56
2022/07/29 07:27:38;;;;;;;6.18;1.75;;;17.90;99.90;;;;;;5028281;28;20131;-56
2022/07/29 07:30:06;;;;;;;6.95;1.65;;;18.00;99.90;;;;;;5014195;28;20036;-55
2022/07/29 07:32:32;;;;;;;7.55;1.95;;;18.10;99.90;;;;;;5028753;28;20510;-54
2022/07/29 07:34:59;;;;;;;5.97;2.05;;;18.20;99.90;;;;;;5036609;28;20077;-56
2022/07/29 07:37:25;;;;;;;5.40;2.33;;;18.30;99.90;;;;;;5036051;28;20176;-55
2022/07/29 07:39:52;;;;;;;5.95;2.58;;;18.30;99.90;;;;;;5030869;28;20074;-55
2022/07/29 07:42:18;;;;;;;5.38;2.00;;;18.30;99.90;;;;;;5021284;28;20061;-56
2022/07/29 07:44:45;;;;;;;4.07;2.20;;;18.30;99.90;;;;;;5023247;28;20052;-53
2022/07/29 07:47:12;;;;;;;7.53;2.90;;;18.20;99.90;;;;;;4992643;28;20049;-56
2022/07/29 07:49:38;;;;;;;6.22;2.25;;;18.30;99.90;;;;;;5022658;28;20040;-57
2022/07/29 07:52:04;;;;;;;6.55;2.10;;;18.30;99.90;;;;;;5025621;28;20045;-57
2022/07/29 07:54:30;;;;;;;5.55;2.03;;;18.40;99.90;;;;;;5036533;28;20808;-56
2022/07/29 07:56:56;;;;;;;7.65;2.60;;;18.60;99.90;;;;;;5020722;28;20045;-56
2022/07/29 07:59:22;;;;;;;6.35;2.00;;;18.70;99.90;;;;;;5030248;28;20045;-57
2022/07/29 08:01:49;;;;;;;7.03;2.67;;;18.80;99.90;;;;;;5032239;28;20052;-56
2022/07/29 08:04:15;;;;;;;8.77;2.25;;;18.90;99.90;;;;;;5033331;28;20139;-56
2022/07/29 08:06:41;;;;;;;5.15;2.13;;;18.90;99.90;;;;;;5029071;28;20049;-56
2022/07/29 08:09:07;;;;;;;4.35;1.85;;;18.90;99.90;;;;;;5027164;28;20072;-56
2022/07/29 08:11:32;;;;;;;7.22;2.30;;;18.90;99.90;;;;;;5031728;28;20038;-57
2022/07/29 08:14:01;;;;;;;5.45;2.15;;;19.00;99.90;;;;;;5029703;28;20049;-56
2022/07/29 08:16:27;;;;;;;6.53;2.53;;;19.00;99.90;;;;;;5024089;28;20045;-56
2022/07/29 08:18:56;;;;;;;10.00;2.80;;;19.10;99.90;;;;;;5037700;28;20047;-55
2022/07/29 08:21:23;;;;;;;4.05;1.77;;;19.10;99.90;;;;;;5022581;28;20182;-53
2022/07/29 08:23:52;;;;;;;7.88;2.42;;;19.20;99.90;;;;;;5042674;28;20079;-55
2022/07/29 08:26:22;;;;;;;6.10;2.20;;;19.30;99.90;;;;;;5039139;28;20515;-56
2022/07/29 08:28:50;;;;;;;6.22;2.40;;;19.30;99.90;;;;;;5034545;28;20055;-56
2022/07/29 08:31:16;;;;;;;7.18;2.38;;;19.30;99.90;;;;;;5049548;28;20053;-54
2022/07/29 08:33:42;;;;;;;7.50;2.47;;;19.30;99.90;;;;;;5045854;28;20496;-56
2022/07/29 08:36:08;;;;;;;10.65;2.67;;;19.20;99.90;;;;;;5008074;28;20060;-57
2022/07/29 08:38:34;;;;;;;8.63;2.42;;;19.20;99.90;;;;;;5022914;28;20318;-56
2022/07/29 08:41:01;;;;;;;5.75;2.97;;;19.20;99.90;;;;;;5020936;28;20033;-55
2022/07/29 08:43:28;;;;;;;7.47;2.40;;;19.30;99.90;;;;;;5034231;28;20033;-56
2022/07/29 08:45:54;;;;;;;6.78;2.40;;;19.30;99.90;;;;;;5040674;28;20146;-56
2022/07/29 08:48:22;;;;;;;4.25;1.90;;;19.40;99.90;;;;;;5041490;28;20115;-56
2022/07/29 08:50:54;;;;;;;4.93;1.95;;;19.40;99.90;;;;;;5039694;28;20063;-57
2022/07/29 08:53:20;;;;;;;7.10;2.42;;;19.40;99.90;;;;;;5045022;28;20076;-56
2022/07/29 08:55:49;;;;;;;6.90;2.30;;;19.50;99.90;;;;;;5046412;28;20052;-56
2022/07/29 08:58:16;;;;;;;7.13;2.20;;;19.40;99.90;;;;;;5042820;28;20083;-55
2022/07/29 09:00:48;;;;;;;5.78;2.33;;;19.50;99.90;;;;;;5042897;28;20041;-57
2022/07/29 09:03:17;;;;;;;9.57;2.47;;;19.40;99.90;;;;;;5040219;28;20537;-56
2022/07/29 09:05:47;;;;;;;5.00;2.28;;;19.30;99.90;;;;;;5039557;28;20076;-52
2022/07/29 09:08:14;;;;;;;6.20;2.22;;;19.30;99.90;;;;;;5041998;28;20480;-53
2022/07/29 09:10:40;;;;;;;6.65;2.90;;;19.30;99.90;;;;;;5025797;28;20048;-55
2022/07/29 09:13:08;;;;;;;4.55;2.42;;;19.30;99.90;;;;;;5020707;28;20064;-56
2022/07/29 09:15:33;;;;;;;7.82;2.30;;;19.30;99.90;;;;;;5040007;28;20560;-56
2022/07/29 09:18:00;;;;;;;8.88;2.90;;;19.30;99.90;;;;;;5033517;28;20551;-56
2022/07/29 09:21:57;;;;;;;4.18;2.35;;;19.30;99.90;;;;;;5039147;28;20377;-57
2022/07/29 09:23:13;;;;;;;6.68;2.50;;;19.30;99.90;;;;;;5020530;28;20162;-55
2022/07/29 09:25:40;;;;;;;5.43;2.45;;;19.20;99.90;;;;;;5019285;28;20037;-56
2022/07/29 09:28:11;;;;;;;4.47;2.17;;;19.20;99.90;;;;;;5019803;28;20041;-54
2022/07/29 09:30:58;;;;;;;9.23;2.88;;;19.10;99.90;;;;;;5030963;28;20056;-56
2022/07/29 09:33:31;;;;;;;4.97;2.10;;;19.20;99.90;;;;;;5028651;28;20058;-56
2022/07/29 09:36:05;;;;;;;5.25;2.50;;;19.10;99.90;;;;;;5023873;28;20041;-57
2022/07/29 09:38:33;;;;;;;7.22;2.70;;;19.10;99.90;;;;;;5025222;28;20119;-56
2022/07/29 09:41:01;;;;;;;7.07;2.58;;;19.10;99.90;;;;;;5020114;28;20039;-56
2022/07/29 09:43:27;;;;;;;8.48;3.05;;;19.10;99.90;;;;;;5018835;28;20045;-56
2022/07/29 09:45:53;;;;;;;6.22;2.70;;;19.10;99.90;;;;;;5029389;28;20095;-57
2022/07/29 09:48:24;;;;;;;4.32;2.08;;;19.10;99.90;;;;;;5016610;28;20396;-56
2022/07/29 09:50:51;;;;;;;6.32;2.67;;;19.10;99.90;;;;;;5016982;28;20039;-55
2022/07/29 09:53:35;;;;;;;4.65;2.17;;;19.10;99.90;;;;;;5026084;28;20052;-53
2022/07/29 09:56:01;;;;;;;5.78;2.10;;;19.10;99.90;;;;;;5023930;28;20455;-57
2022/07/29 09:58:27;;;;;;;4.32;2.40;;;19.10;99.90;;;;;;5015128;28;20041;-56
2022/07/29 10:00:56;;;;;;;7.05;2.45;;;19.10;99.90;;;;;;5019963;28;20044;-57
2022/07/29 10:03:23;;;;;;;4.10;2.60;;;19.10;99.90;;;;;;5019569;28;20129;-56
2022/07/29 10:06:13;;;;;;;4.63;2.58;;;19.10;99.90;;;;;;5026163;28;20110;-55
2022/07/29 10:08:41;;;;;;;6.93;2.40;;;19.10;99.90;;;;;;5029088;28;20103;-55
2022/07/29 10:11:12;;;;;;;8.20;2.95;;;19.10;99.90;;;;;;5019965;28;20488;-57
2022/07/29 10:13:39;;;;;;;5.60;3.03;;;19.10;99.90;;;;;;5026479;28;20120;-56
2022/07/29 10:16:06;;;;;;;5.45;2.88;;;19.10;99.90;;;;;;5022149;28;20120;-57
2022/07/29 10:18:32;;;;;;;4.38;2.50;;;19.10;99.90;;;;;;5022683;28;20507;-56
2022/07/29 10:21:00;;;;;;;7.22;3.10;;;19.20;99.90;;;;;;5038666;28;20049;-55
2022/07/29 10:23:27;;;;;;;5.43;2.70;;;19.30;99.90;;;;;;5023563;28;20388;-55
2022/07/29 10:25:53;;;;;;;8.98;3.08;;;19.40;99.90;;;;;;5017335;28;20030;-57
2022/07/29 10:28:19;;;;;;;7.15;3.20;;;19.40;99.90;;;;;;5019094;28;20222;-56
2022/07/29 10:30:46;;;;;;;6.95;3.00;;;19.50;99.90;;;;;;5032043;28;20044;-56
2022/07/29 10:33:31;;;;;;;9.05;2.95;;;19.60;99.90;;;;;;5027166;28;20069;-53
2022/07/29 10:35:57;;;;;;;7.63;3.33;;;19.70;99.90;;;;;;5016951;28;20348;-55
2022/07/29 10:38:47;;;;;;;4.82;2.58;;;20.10;99.90;;;;;;5020522;28;20037;-57
2022/07/29 10:41:34;;;;;;;7.32;2.85;;;20.50;99.90;;;;;;5015485;28;20037;-57
2022/07/29 10:44:17;;;;;;;6.95;2.75;;;20.80;99.90;;;;;;5023636;28;20483;-56
2022/07/29 10:46:43;;;;;;;5.30;2.70;;;20.80;99.90;;;;;;5018937;28;20723;-54
2022/07/29 10:49:19;;;;;;;4.75;2.47;;;20.80;99.80;;;;;;5020424;28;20045;-57
2022/07/29 10:51:55;;;;;;;6.80;2.80;;;20.70;99.80;;;;;;5024584;28;20055;-55
2022/07/29 10:54:36;;;;;;;5.55;2.70;;;20.70;99.70;;;;;;5025194;28;22297;-56
2022/07/29 10:57:25;;;;;;;6.30;2.80;;;20.60;99.50;;;;;;5010015;28;20377;-56
2022/07/29 11:00:00;;;;;;;8.88;2.70;;;20.50;99.60;;;;;;5024732;28;20451;-56
2022/07/29 11:02:32;;;;;;;6.88;2.67;;;20.40;99.80;;;;;;5054298;22;20056;-54
2022/07/29 11:04:59;;;;;;;6.22;3.35;;;20.30;99.70;;;;;;5030084;28;20056;-55
2022/07/29 11:07:25;;;;;;;9.27;3.13;;;20.20;99.90;;;;;;5029738;28;20040;-52
2022/07/29 11:10:13;;;;;;;6.63;2.85;;;20.00;99.90;;;;;;5044311;28;20041;-54
2022/07/29 11:12:42;;;;;;;6.82;2.63;;;20.00;99.90;;;;;;5044642;28;20053;-56
2022/07/29 11:15:21;;;;;;;6.78;2.55;;;19.90;99.90;;;;;;5031857;28;20044;-53
2022/07/29 11:18:00;;;;;;;8.57;2.80;;;19.90;99.90;;;;;;5024544;28;20040;-54
2022/07/29 11:20:46;;;;;;;6.30;2.63;;;19.80;99.90;;;;;;5026708;28;20115;-54
2022/07/29 11:23:26;;;;;;;6.47;2.85;;;19.70;99.90;;;;;;5037059;28;20487;-52
2022/07/29 11:26:12;;;;;;;5.55;2.78;;;19.70;99.90;;;;;;5030646;28;20048;-54
2022/07/29 11:28:49;;;;;;;5.15;2.85;;;19.60;99.90;;;;;;5052834;28;20053;-55
2022/07/29 11:31:18;;;;;;;7.82;3.05;;;19.60;99.90;;;;;;5044463;28;20040;-55
2022/07/29 11:33:45;;;;;;;5.30;2.60;;;19.60;99.90;;;;;;5042110;28;20064;-55
2022/07/29 11:36:13;;;;;;;8.68;3.28;;;19.60;99.90;;;;;;5039699;28;20577;-52
2022/07/29 11:38:40;;;;;;;4.60;2.45;;;19.60;99.90;;;;;;5039394;28;20204;-53
2022/07/29 11:41:17;;;;;;;4.20;2.47;;;19.60;99.90;;;;;;5042656;28;20033;-54
2022/07/29 11:43:59;;;;;;;7.25;3.08;;;19.70;99.90;;;;;;5039137;28;20060;-52
2022/07/29 11:46:46;;;;;;;9.52;2.63;;;19.70;99.90;;;;;;5061458;28;20040;-52
2022/07/29 11:49:13;;;;;;;5.53;2.80;;;19.70;99.90;;;;;;5034861;28;20312;-56
2022/07/29 11:51:40;;;;;;;8.15;3.17;;;19.70;99.90;;;;;;5041416;28;20048;-53
2022/07/29 11:54:11;;;;;;;9.50;3.25;;;19.70;99.90;;;;;;5014582;28;20064;-55
2022/07/29 11:56:41;;;;;;;6.47;2.67;;;19.70;99.90;;;;;;5042267;28;20037;-52
2022/07/29 11:59:10;;;;;;;7.55;2.83;;;19.80;99.90;;;;;;5032008;28;20049;-54
2022/07/29 12:01:36;;;;;;;5.93;2.63;;;19.80;99.90;;;;;;5035231;28;20547;-55
2022/07/29 12:04:04;;;;;;;4.80;2.85;;;19.70;99.90;;;;;;5025263;28;20120;-55
2022/07/29 12:06:30;;;;;;;6.28;2.80;;;19.80;99.90;;;;;;5039316;28;20105;-55
2022/07/29 12:08:56;;;;;;;6.15;2.92;;;19.80;99.90;;;;;;5031570;28;20454;-55
2022/07/29 12:11:22;;;;;;;6.80;3.20;;;19.90;99.90;;;;;;5031912;28;20037;-55
2022/07/29 12:13:49;;;;;;;5.82;2.80;;;20.00;99.90;;;;;;5031368;28;20047;-54
2022/07/29 12:16:15;;;;;;;8.00;3.08;;;20.00;99.90;;;;;;5006755;28;20309;-56
2022/07/29 12:18:41;;;;;;;7.28;3.38;;;20.00;99.90;;;;;;5030719;28;20206;-54
2022/07/29 12:21:08;;;;;;;9.40;3.20;;;20.00;99.90;;;;;;5021914;28;20206;-53
2022/07/29 12:23:33;;;;;;;7.30;3.08;;;20.10;99.90;;;;;;5009834;28;20044;-52
2022/07/29 12:25:59;;;;;;;8.65;2.90;;;20.20;99.90;;;;;;5032091;28;20045;-55
2022/07/29 12:28:25;;;;;;;5.53;2.88;;;20.30;99.90;;;;;;5030601;28;20044;-55
2022/07/29 12:30:51;;;;;;;5.28;2.75;;;20.30;99.90;;;;;;5021032;28;20575;-55
2022/07/29 12:33:23;;;;;;;17.90;3.28;;;20.50;99.90;;;;;;5022908;28;20033;-54
2022/07/29 12:35:55;;;;;;;8.70;3.15;;;20.70;99.90;;;;;;5022290;28;20053;-55
2022/07/29 12:38:21;;;;;;;4.77;3.13;;;20.90;99.60;;;;;;5040481;28;20496;-55
2022/07/29 12:40:48;;;;;;;9.68;3.30;;;21.00;99.40;;;;;;5029431;28;20404;-55
2022/07/29 12:43:17;;;;;;;6.47;3.10;;;21.10;99.60;;;;;;5027890;28;20048;-55
2022/07/29 12:45:49;;;;;;;8.77;3.92;;;21.30;98.90;;;;;;5029480;28;20049;-55
2022/07/29 12:48:16;;;;;;;8.43;3.17;;;21.40;98.50;;;;;;5029806;28;20427;-54
2022/07/29 12:51:01;;;;;;;8.05;4.20;;;21.60;98.80;;;;;;5036023;28;20060;-55
2022/07/29 12:53:27;;;;;;;7.43;4.03;;;22.00;98.30;;;;;;5035866;28;20045;-56
2022/07/29 12:55:56;;;;;;;7.70;3.90;;;22.30;98.30;;;;;;5043507;28;20055;-55
2022/07/29 12:58:33;;;;;;;8.85;4.43;;;22.70;97.50;;;;;;5045012;28;20043;-54
2022/07/29 13:01:17;;;;;;;11.23;4.63;;;22.90;97.50;;;;;;5032094;28;20036;-55
2022/07/29 13:03:56;;;;;;;10.23;4.55;;;23.00;97.10;;;;;;5037255;28;20095;-56
2022/07/29 13:06:40;;;;;;;5.97;4.00;;;23.00;97.40;;;;;;5030739;28;20037;-55
2022/07/29 13:09:06;;;;;;;6.50;4.07;;;23.00;97.50;;;;;;5035650;28;20064;-55
2022/07/29 13:11:35;;;;;;;7.95;4.85;;;23.00;97.40;;;;;;5057691;28;20127;-55
2022/07/29 13:14:01;;;;;;;13.68;4.47;;;22.90;97.10;;;;;;5039532;28;20044;-55
2022/07/29 13:16:27;;;;;;;10.02;4.05;;;23.00;97.60;;;;;;5039876;28;20033;-55
2022/07/29 13:19:07;;;;;;;6.97;3.80;;;23.00;97.50;;;;;;5039988;28;20036;-56
2022/07/29 13:21:33;;;;;;;9.27;3.72;;;23.00;97.00;;;;;;5054612;28;20039;-55
2022/07/29 13:23:59;;;;;;;7.63;3.80;;;23.10;97.60;;;;;;5038460;28;20048;-55